Time;durP1;ratioP1;P1;durP2;ratioP2;P2;SDS_P1;SDS_P2;PMS_P1;PMS_P2;Temp;Humidity;BMP_temperature;BMP_pressure;BME280_temperature;BME280_humidity;BME280_pressure;Samples;Min_cycle;Max_cycle;Signal;HPM_P1;HPM_P2
2023/06/05 00:00:06;;;;;;;1.92;0.85;;;;;;;;;;5033503;28;20200;-46
2023/06/05 00:02:38;;;;;;;0.82;0.60;;;;;;;;;;5033685;28;20292;-46
2023/06/05 00:05:08;;;;;;;1.35;0.80;;;;;;;;;;5033478;28;20205;-46
2023/06/05 00:07:39;;;;;;;0.85;0.70;;;;;;;;;;5033157;28;20217;-46
2023/06/05 00:10:07;;;;;;;1.70;0.60;;;;;;;;;;5033588;28;20200;-45
2023/06/05 00:12:35;;;;;;;0.75;0.70;;;;;;;;;;5033146;28;20658;-46
2023/06/05 00:15:04;;;;;;;0.77;0.77;;;;;;;;;;5033273;28;20200;-46
2023/06/05 00:17:32;;;;;;;1.17;0.70;;;;;;;;;;5033478;28;20258;-46
2023/06/05 00:19:59;;;;;;;2.17;0.95;;;;;;;;;;5033550;28;20208;-45
2023/06/05 00:22:28;;;;;;;1.23;0.70;;;;;;;;;;5033383;28;20193;-46
2023/06/05 00:24:55;;;;;;;1.02;0.80;;;;;;;;;;5033117;28;20727;-46
2023/06/05 00:27:22;;;;;;;1.50;0.90;;;;;;;;;;5033305;28;20220;-45
2023/06/05 00:29:49;;;;;;;1.88;0.70;;;;;;;;;;5033089;28;20207;-46
2023/06/05 00:32:17;;;;;;;1.50;0.77;;;;;;;;;;5033464;28;20200;-45
2023/06/05 00:34:44;;;;;;;0.85;0.68;;;;;;;;;;5033115;28;20205;-46
2023/06/05 00:37:13;;;;;;;0.63;0.63;;;;;;;;;;5015739;28;20204;-46
2023/06/05 00:39:40;;;;;;;1.05;0.82;;;;;;;;;;5033170;28;20212;-46
2023/06/05 00:42:11;;;;;;;1.13;0.70;;;;;;;;;;5033286;28;20205;-45
2023/06/05 00:44:40;;;;;;;0.73;0.63;;;;;;;;;;5033016;28;20236;-46
2023/06/05 00:47:07;;;;;;;1.13;0.70;;;;;;;;;;5019443;28;20228;-45
2023/06/05 00:49:35;;;;;;;1.00;0.70;;;;;;;;;;5036866;28;20205;-46
2023/06/05 00:52:02;;;;;;;1.30;0.70;;;;;;;;;;5036749;28;20260;-46
2023/06/05 00:54:30;;;;;;;1.73;1.00;;;;;;;;;;5037033;28;20208;-47
2023/06/05 00:56:57;;;;;;;0.95;0.80;;;;;;;;;;5019358;28;20200;-46
2023/06/05 00:59:25;;;;;;;0.65;0.65;;;;;;;;;;5036874;28;20565;-46
2023/06/05 01:01:53;;;;;;;1.40;0.80;;;;;;;;;;5019305;28;20209;-46
2023/06/05 01:04:20;;;;;;;0.77;0.77;;;;;;;;;;5036908;28;20208;-46
2023/06/05 01:06:47;;;;;;;0.90;0.70;;;;;;;;;;5018860;28;20207;-46
2023/06/05 01:09:15;;;;;;;1.15;0.70;;;;;;;;;;5036742;28;20535;-45
2023/06/05 01:12:05;;;;;;;0.52;0.52;;;;;;;;;;5019194;28;20283;-46
2023/06/05 01:14:34;;;;;;;1.17;0.60;;;;;;;;;;5036403;28;20201;-46
2023/06/05 01:17:02;;;;;;;0.73;0.60;;;;;;;;;;5036284;28;20208;-46
2023/06/05 01:19:31;;;;;;;1.00;0.80;;;;;;;;;;5018623;28;20677;-46
2023/06/05 01:21:59;;;;;;;0.88;0.70;;;;;;;;;;5019216;28;20259;-45
2023/06/05 01:24:27;;;;;;;2.05;0.88;;;;;;;;;;5019015;28;20211;-47
2023/06/05 01:27:00;;;;;;;1.20;0.80;;;;;;;;;;5018779;28;20197;-46
2023/06/05 01:29:35;;;;;;;1.20;0.70;;;;;;;;;;5018462;28;20674;-46
2023/06/05 01:32:15;;;;;;;1.23;0.88;;;;;;;;;;5018526;28;20213;-46
2023/06/05 01:34:44;;;;;;;1.02;0.77;;;;;;;;;;5002884;28;20212;-47
2023/06/05 01:37:18;;;;;;;1.98;0.98;;;;;;;;;;5018390;28;20235;-46
2023/06/05 01:39:47;;;;;;;2.25;0.80;;;;;;;;;;5019570;28;20185;-46
2023/06/05 01:42:15;;;;;;;1.05;0.70;;;;;;;;;;5018355;28;20241;-46
2023/06/05 01:44:42;;;;;;;1.73;0.82;;;;;;;;;;5014846;28;20238;-46
2023/06/05 01:47:10;;;;;;;0.93;0.70;;;;;;;;;;5014731;28;20206;-46
2023/06/05 01:49:37;;;;;;;1.17;0.80;;;;;;;;;;5014654;28;20592;-48
2023/06/05 01:52:05;;;;;;;1.30;0.90;;;;;;;;;;5015525;28;20249;-46
2023/06/05 01:54:33;;;;;;;0.77;0.60;;;;;;;;;;5014691;28;20205;-46
2023/06/05 01:57:04;;;;;;;1.13;0.70;;;;;;;;;;5013378;28;20631;-46
2023/06/05 01:59:33;;;;;;;1.70;0.80;;;;;;;;;;5014363;28;20208;-46
2023/06/05 02:02:02;;;;;;;0.95;0.80;;;;;;;;;;5014486;28;20210;-46
2023/06/05 02:04:30;;;;;;;1.17;0.90;;;;;;;;;;4997340;28;20212;-46
2023/06/05 02:07:03;;;;;;;1.98;1.00;;;;;;;;;;5015705;28;20206;-45
2023/06/05 02:09:33;;;;;;;1.08;0.85;;;;;;;;;;5015623;28;20193;-46
2023/06/05 02:12:03;;;;;;;1.58;0.90;;;;;;;;;;5015599;28;20277;-46
2023/06/05 02:14:35;;;;;;;3.53;0.70;;;;;;;;;;5015554;28;20194;-46
2023/06/05 02:17:06;;;;;;;4.25;0.88;;;;;;;;;;5014205;28;20205;-46
2023/06/05 02:19:33;;;;;;;0.80;0.80;;;;;;;;;;5014006;28;20263;-46
2023/06/05 02:22:01;;;;;;;1.10;0.75;;;;;;;;;;5015308;28;20287;-46
2023/06/05 02:24:28;;;;;;;1.17;0.82;;;;;;;;;;5013802;28;20205;-46
2023/06/05 02:26:56;;;;;;;0.95;0.80;;;;;;;;;;5015197;28;20336;-46
2023/06/05 02:29:24;;;;;;;1.42;0.70;;;;;;;;;;5015299;28;20264;-46
2023/06/05 02:31:51;;;;;;;1.08;0.88;;;;;;;;;;5013454;28;20205;-46
2023/06/05 02:34:19;;;;;;;0.95;0.80;;;;;;;;;;5013800;28;20209;-47
2023/06/05 02:36:46;;;;;;;1.95;1.13;;;;;;;;;;5013575;28;20237;-48
2023/06/05 02:39:14;;;;;;;2.28;1.00;;;;;;;;;;5014956;28;20209;-46
2023/06/05 02:41:44;;;;;;;1.45;0.82;;;;;;;;;;5015189;28;20201;-46
2023/06/05 02:44:11;;;;;;;1.23;0.90;;;;;;;;;;5013826;28;20240;-48
2023/06/05 02:46:38;;;;;;;5.90;0.70;;;;;;;;;;5013691;28;20197;-46
2023/06/05 02:49:06;;;;;;;1.00;0.85;;;;;;;;;;5013585;28;20244;-45
2023/06/05 02:51:33;;;;;;;1.10;0.80;;;;;;;;;;5013866;28;20213;-46
2023/06/05 02:54:00;;;;;;;1.60;0.70;;;;;;;;;;5014050;28;20548;-46
2023/06/05 02:56:27;;;;;;;1.33;0.77;;;;;;;;;;5013965;28;20197;-46
2023/06/05 02:58:56;;;;;;;1.17;0.80;;;;;;;;;;5013467;28;20223;-46
2023/06/05 03:01:25;;;;;;;1.38;1.05;;;;;;;;;;5013371;28;20229;-46
2023/06/05 03:03:53;;;;;;;1.60;1.10;;;;;;;;;;5013575;28;20221;-46
2023/06/05 03:06:27;;;;;;;1.05;0.85;;;;;;;;;;5013836;28;20288;-46
2023/06/05 03:08:56;;;;;;;1.98;1.02;;;;;;;;;;5013303;28;20717;-45
2023/06/05 03:11:25;;;;;;;3.47;1.10;;;;;;;;;;5013234;28;20232;-45
2023/06/05 03:13:53;;;;;;;1.00;0.90;;;;;;;;;;5013247;28;20209;-45
2023/06/05 03:16:23;;;;;;;1.75;1.00;;;;;;;;;;5013633;28;20227;-45
2023/06/05 03:18:55;;;;;;;2.00;0.80;;;;;;;;;;5014331;28;20213;-45
2023/06/05 03:21:22;;;;;;;0.68;0.60;;;;;;;;;;5013000;28;20205;-45
2023/06/05 03:23:50;;;;;;;0.88;0.80;;;;;;;;;;5012960;28;20674;-45
2023/06/05 03:26:18;;;;;;;2.08;0.70;;;;;;;;;;5012900;28;20205;-46
2023/06/05 03:28:46;;;;;;;1.35;1.00;;;;;;;;;;5030042;28;20237;-48
2023/06/05 03:31:15;;;;;;;1.33;1.10;;;;;;;;;;5026727;28;20208;-48
2023/06/05 03:33:45;;;;;;;3.00;1.15;;;;;;;;;;5027464;28;20275;-45
2023/06/05 03:36:17;;;;;;;2.42;1.00;;;;;;;;;;5027171;28;20653;-46
2023/06/05 03:38:46;;;;;;;1.50;1.02;;;;;;;;;;5032142;28;20219;-48
2023/06/05 03:41:13;;;;;;;0.80;0.80;;;;;;;;;;5029731;28;20242;-47
2023/06/05 03:43:41;;;;;;;1.02;0.90;;;;;;;;;;5040130;28;20223;-46
2023/06/05 03:46:10;;;;;;;1.85;1.00;;;;;;;;;;5032781;28;20207;-47
2023/06/05 03:48:39;;;;;;;1.45;1.08;;;;;;;;;;5032685;28;20219;-46
2023/06/05 03:51:06;;;;;;;1.30;1.08;;;;;;;;;;5035630;28;20223;-49
2023/06/05 03:53:34;;;;;;;1.60;1.05;;;;;;;;;;5045324;28;20299;-46
2023/06/05 03:56:03;;;;;;;1.90;1.25;;;;;;;;;;5031983;28;20245;-52
2023/06/05 03:58:36;;;;;;;2.90;1.23;;;;;;;;;;5032370;28;20272;-46
2023/06/05 04:01:03;;;;;;;1.38;0.90;;;;;;;;;;5026632;28;20228;-46
2023/06/05 04:03:31;;;;;;;2.72;0.85;;;;;;;;;;5022457;28;20622;-45
2023/06/05 04:05:59;;;;;;;3.22;1.10;;;;;;;;;;5040777;28;20311;-45
2023/06/05 04:08:26;;;;;;;1.33;1.17;;;;;;;;;;5049248;28;20231;-46
2023/06/05 04:10:53;;;;;;;2.15;1.33;;;;;;;;;;5025670;28;20224;-46
2023/06/05 04:13:21;;;;;;;1.40;1.05;;;;;;;;;;5018530;28;20255;-47
2023/06/05 04:15:49;;;;;;;3.28;1.10;;;;;;;;;;5034771;28;20231;-46
2023/06/05 04:18:17;;;;;;;1.38;1.20;;;;;;;;;;5034566;28;20232;-46
2023/06/05 04:20:46;;;;;;;1.35;1.10;;;;;;;;;;5036881;28;20224;-47
2023/06/05 04:23:14;;;;;;;5.90;1.30;;;;;;;;;;5055990;28;20251;-46
2023/06/05 04:25:45;;;;;;;1.83;1.00;;;;;;;;;;5038890;28;20625;-45
2023/06/05 04:28:12;;;;;;;3.55;1.10;;;;;;;;;;5037075;28;20564;-46
2023/06/05 04:30:40;;;;;;;1.58;1.10;;;;;;;;;;5021202;28;20239;-46
2023/06/05 04:33:07;;;;;;;1.40;0.93;;;;;;;;;;5018789;28;20224;-46
2023/06/05 04:35:38;;;;;;;3.05;1.63;;;;;;;;;;5019213;28;20224;-46
2023/06/05 04:38:05;;;;;;;2.35;1.30;;;;;;;;;;5019803;28;20297;-47
2023/06/05 04:40:33;;;;;;;3.20;0.95;;;;;;;;;;5038531;28;20599;-46
2023/06/05 04:43:01;;;;;;;2.05;1.42;;;;;;;;;;5025971;28;20231;-46
2023/06/05 04:45:29;;;;;;;2.33;1.50;;;;;;;;;;5016804;28;20740;-47
2023/06/05 04:47:56;;;;;;;2.55;1.15;;;;;;;;;;5035532;28;20291;-47
2023/06/05 04:50:25;;;;;;;3.65;1.30;;;;;;;;;;5035888;28;20270;-47
2023/06/05 04:53:05;;;;;;;6.13;1.70;;;;;;;;;;5024842;28;20300;-48
2023/06/05 04:55:34;;;;;;;3.38;1.30;;;;;;;;;;5023890;28;20212;-48
2023/06/05 04:58:06;;;;;;;3.17;1.33;;;;;;;;;;5032723;28;20566;-46
2023/06/05 05:00:33;;;;;;;2.72;1.20;;;;;;;;;;5037210;28;20235;-46
2023/06/05 05:03:03;;;;;;;2.15;0.90;;;;;;;;;;5037464;28;20735;-47
2023/06/05 05:05:31;;;;;;;2.40;1.10;;;;;;;;;;5055217;28;20252;-48
2023/06/05 05:07:59;;;;;;;1.90;1.00;;;;;;;;;;5047750;28;20224;-47
2023/06/05 05:10:27;;;;;;;1.23;1.00;;;;;;;;;;5029161;28;20275;-47
2023/06/05 05:12:55;;;;;;;1.83;1.25;;;;;;;;;;5027479;28;20223;-47
2023/06/05 05:15:22;;;;;;;2.40;1.20;;;;;;;;;;5028490;28;20281;-46
2023/06/05 05:17:51;;;;;;;2.35;1.27;;;;;;;;;;5045564;28;20724;-47
2023/06/05 05:20:19;;;;;;;3.72;1.15;;;;;;;;;;5027307;28;20228;-47
2023/06/05 05:22:47;;;;;;;1.92;1.13;;;;;;;;;;5027853;28;20216;-48
2023/06/05 05:25:15;;;;;;;2.22;1.17;;;;;;;;;;5026200;28;20200;-47
2023/06/05 05:27:42;;;;;;;1.83;1.05;;;;;;;;;;5026975;28;20199;-47
2023/06/05 05:30:10;;;;;;;2.80;1.02;;;;;;;;;;5021186;28;20213;-46
2023/06/05 05:32:37;;;;;;;1.88;0.90;;;;;;;;;;5034567;28;20205;-46
2023/06/05 05:35:06;;;;;;;2.00;1.15;;;;;;;;;;5018364;28;20205;-47
2023/06/05 05:37:34;;;;;;;1.48;0.90;;;;;;;;;;5018225;28;20267;-46
2023/06/05 05:40:03;;;;;;;1.58;0.82;;;;;;;;;;5036213;28;20212;-47
2023/06/05 05:42:30;;;;;;;1.92;0.57;;;;;;;;;;5036211;28;20215;-46
2023/06/05 05:44:57;;;;;;;0.85;0.60;;;;;;;;;;5036321;28;20237;-46
2023/06/05 05:47:24;;;;;;;1.17;0.73;;;;;;;;;;5035831;28;20215;-46
2023/06/05 05:49:52;;;;;;;1.45;0.80;;;;;;;;;;5035598;28;20235;-46
2023/06/05 05:52:20;;;;;;;0.65;0.63;;;;;;;;;;5035881;28;20224;-46
2023/06/05 05:54:48;;;;;;;0.85;0.70;;;;;;;;;;5035865;28;20197;-46
2023/06/05 05:57:15;;;;;;;2.35;0.77;;;;;;;;;;5035517;28;20673;-46
2023/06/05 05:59:44;;;;;;;0.93;0.60;;;;;;;;;;5035398;28;20201;-46
2023/06/05 06:02:12;;;;;;;0.95;0.82;;;;;;;;;;5035700;28;20729;-46
2023/06/05 06:04:40;;;;;;;0.93;0.73;;;;;;;;;;5035338;28;20204;-46
2023/06/05 06:07:08;;;;;;;2.30;0.77;;;;;;;;;;5035727;28;20200;-48
2023/06/05 06:09:35;;;;;;;2.28;0.80;;;;;;;;;;5035616;28;20589;-46
2023/06/05 06:12:05;;;;;;;1.48;0.60;;;;;;;;;;5035524;28;20200;-46
2023/06/05 06:14:33;;;;;;;0.95;0.50;;;;;;;;;;5043623;28;20208;-47
2023/06/05 06:17:02;;;;;;;1.52;0.80;;;;;;;;;;5055247;28;20224;-46
2023/06/05 06:19:32;;;;;;;1.08;0.60;;;;;;;;;;5055272;28;20208;-46
2023/06/05 06:22:00;;;;;;;0.90;0.50;;;;;;;;;;5055051;28;20189;-46
2023/06/05 06:24:27;;;;;;;0.98;0.40;;;;;;;;;;5055155;28;20316;-46
2023/06/05 06:26:54;;;;;;;0.90;0.50;;;;;;;;;;5054864;28;20215;-46
2023/06/05 06:29:25;;;;;;;1.00;0.50;;;;;;;;;;5054742;28;20224;-46
2023/06/05 06:31:52;;;;;;;1.10;0.50;;;;;;;;;;5054853;28;20589;-46
2023/06/05 06:34:19;;;;;;;0.85;0.57;;;;;;;;;;5055221;28;20204;-47
2023/06/05 06:36:47;;;;;;;0.85;0.50;;;;;;;;;;5054704;28;20687;-52
2023/06/05 06:39:14;;;;;;;0.40;0.40;;;;;;;;;;5054818;28;20818;-47
2023/06/05 06:41:41;;;;;;;1.17;0.60;;;;;;;;;;5054778;28;20318;-47
2023/06/05 06:44:08;;;;;;;1.95;0.60;;;;;;;;;;5054605;28;20314;-46
2023/06/05 06:46:36;;;;;;;1.08;0.35;;;;;;;;;;5054963;28;20244;-46
2023/06/05 06:49:04;;;;;;;1.98;0.43;;;;;;;;;;5054586;28;20238;-46
2023/06/05 06:51:32;;;;;;;0.50;0.40;;;;;;;;;;5054652;28;20212;-46
2023/06/05 06:53:59;;;;;;;1.02;0.30;;;;;;;;;;5054871;28;20216;-47
2023/06/05 06:56:27;;;;;;;0.70;0.40;;;;;;;;;;5054537;28;20207;-47
2023/06/05 06:58:56;;;;;;;0.68;0.30;;;;;;;;;;5054279;28;20228;-47
2023/06/05 07:01:24;;;;;;;0.75;0.40;;;;;;;;;;5044266;28;20221;-46
2023/06/05 07:03:52;;;;;;;1.15;0.55;;;;;;;;;;5034208;28;20666;-47
2023/06/05 07:06:21;;;;;;;0.43;0.30;;;;;;;;;;5034660;28;20207;-47
2023/06/05 07:08:48;;;;;;;1.23;0.32;;;;;;;;;;5034095;28;20229;-47
2023/06/05 07:11:16;;;;;;;3.90;0.50;;;;;;;;;;5034436;28;20201;-47
2023/06/05 07:13:43;;;;;;;0.75;0.40;;;;;;;;;;5017081;28;20293;-47
2023/06/05 07:16:10;;;;;;;1.17;0.50;;;;;;;;;;5034434;28;20228;-47
2023/06/05 07:18:38;;;;;;;0.85;0.43;;;;;;;;;;5034233;28;20215;-47
2023/06/05 07:21:05;;;;;;;0.63;0.40;;;;;;;;;;5034052;28;20209;-47
2023/06/05 07:23:33;;;;;;;0.82;0.38;;;;;;;;;;5034009;28;20204;-47
2023/06/05 07:26:00;;;;;;;0.60;0.60;;;;;;;;;;5034109;28;20212;-46
2023/06/05 07:28:27;;;;;;;1.05;0.47;;;;;;;;;;5034126;28;20204;-47
2023/06/05 07:30:54;;;;;;;1.38;0.50;;;;;;;;;;5033891;28;20324;-46
2023/06/05 07:33:22;;;;;;;5.35;0.50;;;;;;;;;;5034137;28;20209;-46
2023/06/05 07:35:59;;;;;;;1.20;0.63;;;;;;;;;;5033720;28;20211;-47
2023/06/05 07:38:29;;;;;;;1.60;0.50;;;;;;;;;;5033664;28;20204;-47
2023/06/05 07:41:01;;;;;;;0.68;0.40;;;;;;;;;;5033817;28;20212;-47
2023/06/05 07:43:29;;;;;;;1.58;0.30;;;;;;;;;;5033692;28;20232;-47
2023/06/05 07:45:56;;;;;;;1.38;0.50;;;;;;;;;;5033648;28;20575;-47
2023/06/05 07:48:23;;;;;;;0.75;0.57;;;;;;;;;;5033674;28;20204;-46
2023/06/05 07:50:51;;;;;;;0.90;0.43;;;;;;;;;;5033316;28;20220;-46
2023/06/05 07:53:18;;;;;;;1.13;0.47;;;;;;;;;;5033897;28;20197;-47
2023/06/05 07:55:45;;;;;;;3.42;0.82;;;;;;;;;;5032685;28;20300;-47
2023/06/05 07:58:13;;;;;;;1.00;0.50;;;;;;;;;;5033699;28;20204;-47
2023/06/05 08:00:47;;;;;;;0.40;0.40;;;;;;;;;;5033587;28;20212;-47
2023/06/05 08:03:19;;;;;;;0.60;0.50;;;;;;;;;;5033382;28;20691;-47
2023/06/05 08:05:48;;;;;;;0.45;0.40;;;;;;;;;;5033649;28;20323;-47
2023/06/05 08:08:16;;;;;;;1.38;0.55;;;;;;;;;;5033485;28;20204;-47
2023/06/05 08:10:43;;;;;;;2.22;0.70;;;;;;;;;;5038511;28;20311;-47
2023/06/05 08:13:11;;;;;;;1.25;0.60;;;;;;;;;;5053728;28;20215;-47
2023/06/05 08:15:38;;;;;;;1.38;0.50;;;;;;;;;;5053084;28;20227;-47
2023/06/05 08:18:05;;;;;;;1.20;0.47;;;;;;;;;;5053602;28;20727;-47
2023/06/05 08:20:32;;;;;;;0.77;0.68;;;;;;;;;;5053350;28;20258;-48
2023/06/05 08:23:00;;;;;;;0.60;0.40;;;;;;;;;;5053416;28;20215;-47
2023/06/05 08:25:27;;;;;;;1.30;0.47;;;;;;;;;;5053040;28;20683;-47
2023/06/05 08:27:54;;;;;;;3.58;0.60;;;;;;;;;;5053056;28;20191;-47
2023/06/05 08:30:21;;;;;;;0.55;0.40;;;;;;;;;;5052904;28;20559;-47
2023/06/05 08:32:48;;;;;;;0.60;0.40;;;;;;;;;;5052993;28;20208;-46
2023/06/05 08:35:16;;;;;;;2.85;0.50;;;;;;;;;;5053201;28;20588;-47
2023/06/05 08:37:43;;;;;;;0.40;0.40;;;;;;;;;;5053223;28;20199;-47
2023/06/05 08:40:12;;;;;;;3.70;0.52;;;;;;;;;;5052878;28;20719;-46
2023/06/05 08:42:40;;;;;;;0.60;0.40;;;;;;;;;;5053207;28;20200;-47
2023/06/05 08:45:08;;;;;;;0.50;0.40;;;;;;;;;;5052928;28;20231;-47
2023/06/05 08:47:36;;;;;;;0.93;0.47;;;;;;;;;;5053156;28;20219;-47
2023/06/05 08:50:05;;;;;;;0.77;0.40;;;;;;;;;;5052926;28;20224;-47
2023/06/05 08:52:35;;;;;;;1.58;0.50;;;;;;;;;;5053109;28;20204;-47
2023/06/05 08:55:06;;;;;;;1.73;0.65;;;;;;;;;;5052928;28;20314;-46
2023/06/05 08:57:38;;;;;;;6.93;0.80;;;;;;;;;;5001942;28;20201;-48
2023/06/05 09:00:09;;;;;;;0.50;0.30;;;;;;;;;;5035775;28;20625;-47
2023/06/05 09:02:38;;;;;;;0.65;0.60;;;;;;;;;;5052722;28;20275;-47
2023/06/05 09:05:06;;;;;;;1.05;0.65;;;;;;;;;;5052836;28;20208;-47
2023/06/05 09:07:34;;;;;;;1.13;0.50;;;;;;;;;;5055749;28;20204;-48
2023/06/05 09:10:01;;;;;;;0.88;0.57;;;;;;;;;;5056359;28;20223;-47
2023/06/05 09:12:28;;;;;;;1.40;0.57;;;;;;;;;;5056854;28;20257;-47
2023/06/05 09:14:55;;;;;;;12.48;0.70;;;;;;;;;;5056578;28;20214;-47
2023/06/05 09:17:24;;;;;;;0.50;0.45;;;;;;;;;;5056546;28;20211;-47
2023/06/05 09:19:52;;;;;;;0.60;0.52;;;;;;;;;;5056302;28;20200;-47
2023/06/05 09:22:33;;;;;;;1.25;0.73;;;;;;;;;;5056384;28;20279;-47
2023/06/05 09:25:01;;;;;;;0.73;0.47;;;;;;;;;;5056501;28;20233;-47
2023/06/05 09:27:28;;;;;;;2.58;0.80;;;;;;;;;;5056057;28;20653;-47
2023/06/05 09:30:04;;;;;;;0.68;0.38;;;;;;;;;;5055904;28;20224;-47
2023/06/05 09:32:31;;;;;;;0.52;0.45;;;;;;;;;;5055992;28;20188;-47
2023/06/05 09:35:00;;;;;;;0.50;0.50;;;;;;;;;;5055857;28;20258;-47
2023/06/05 09:37:35;;;;;;;0.30;0.30;;;;;;;;;;5038602;28;20195;-47
2023/06/05 09:40:04;;;;;;;3.42;0.60;;;;;;;;;;5056127;28;20231;-47
2023/06/05 09:42:32;;;;;;;0.98;0.50;;;;;;;;;;5055958;28;20200;-47
2023/06/05 09:45:00;;;;;;;1.20;0.40;;;;;;;;;;5055594;28;20228;-47
2023/06/05 09:47:28;;;;;;;0.90;0.50;;;;;;;;;;5055716;28;20283;-48
2023/06/05 09:50:22;;;;;;;0.50;0.40;;;;;;;;;;5055142;28;20323;-47
2023/06/05 09:52:51;;;;;;;1.05;0.60;;;;;;;;;;5055597;28;20188;-47
2023/06/05 09:55:18;;;;;;;0.95;0.60;;;;;;;;;;5055455;28;20200;-47
2023/06/05 09:57:47;;;;;;;0.47;0.40;;;;;;;;;;5038032;28;20211;-46
2023/06/05 10:00:15;;;;;;;0.90;0.50;;;;;;;;;;5055654;28;20685;-47
2023/06/05 10:02:46;;;;;;;1.75;0.63;;;;;;;;;;5038686;28;20208;-49
2023/06/05 10:05:14;;;;;;;1.27;0.50;;;;;;;;;;5038100;28;20597;-47
2023/06/05 10:07:41;;;;;;;0.30;0.30;;;;;;;;;;5037771;28;20200;-47
2023/06/05 10:10:09;;;;;;;0.90;0.60;;;;;;;;;;5055317;28;20219;-47
2023/06/05 10:12:37;;;;;;;1.60;0.90;;;;;;;;;;5042114;28;20211;-47
2023/06/05 10:15:06;;;;;;;0.55;0.45;;;;;;;;;;5017795;28;20665;-47
2023/06/05 10:17:36;;;;;;;1.92;0.52;;;;;;;;;;5034401;28;20674;-47
2023/06/05 10:20:06;;;;;;;1.05;0.47;;;;;;;;;;5035653;28;20209;-47
2023/06/05 10:22:36;;;;;;;0.85;0.60;;;;;;;;;;5035532;28;20205;-47
2023/06/05 10:25:06;;;;;;;0.93;0.50;;;;;;;;;;5018000;28;20201;-48
2023/06/05 10:28:02;;;;;;;3.45;0.70;;;;;;;;;;5018118;28;20197;-49
2023/06/05 10:30:29;;;;;;;1.90;0.57;;;;;;;;;;5006440;28;20228;-47
2023/06/05 10:33:03;;;;;;;0.95;0.40;;;;;;;;;;5054946;28;20204;-47
2023/06/05 10:35:48;;;;;;;0.77;0.60;;;;;;;;;;5054810;28;20200;-48
2023/06/05 10:38:21;;;;;;;0.30;0.30;;;;;;;;;;5037845;28;20267;-47
2023/06/05 10:40:56;;;;;;;1.08;0.70;;;;;;;;;;5036959;28;20200;-47
2023/06/05 10:43:35;;;;;;;0.47;0.40;;;;;;;;;;5054809;28;20251;-47
2023/06/05 10:46:22;;;;;;;3.78;0.55;;;;;;;;;;5054562;28;20706;-48
2023/06/05 10:49:10;;;;;;;1.23;0.60;;;;;;;;;;5054410;28;20234;-48
2023/06/05 10:51:48;;;;;;;1.02;0.60;;;;;;;;;;5054812;28;20216;-47
2023/06/05 10:54:22;;;;;;;0.50;0.40;;;;;;;;;;5054067;28;20200;-47
2023/06/05 10:56:56;;;;;;;0.63;0.50;;;;;;;;;;5054706;28;20203;-47
2023/06/05 10:59:36;;;;;;;0.55;0.45;;;;;;;;;;5054377;28;20234;-47
2023/06/05 11:04:43;;;;;;;0.80;0.50;;;;;;;;;;5054266;28;20208;-48
2023/06/05 11:07:24;;;;;;;0.98;0.60;;;;;;;;;;5054186;28;20192;-47
2023/06/05 11:10:04;;;;;;;0.55;0.50;;;;;;;;;;5054185;28;20199;-47
2023/06/05 11:12:34;;;;;;;0.77;0.60;;;;;;;;;;5054187;28;20204;-47
2023/06/05 11:15:03;;;;;;;1.02;0.63;;;;;;;;;;5054076;28;20208;-47
2023/06/05 11:17:31;;;;;;;1.33;0.60;;;;;;;;;;5054396;28;20253;-47
2023/06/05 11:19:59;;;;;;;2.35;0.55;;;;;;;;;;5053887;28;20664;-47
2023/06/05 11:22:27;;;;;;;0.73;0.55;;;;;;;;;;5054111;28;20236;-47
2023/06/05 11:25:24;;;;;;;2.78;0.60;;;;;;;;;;5053960;28;20200;-47
2023/06/05 11:28:04;;;;;;;0.77;0.50;;;;;;;;;;5053772;28;20738;-47
2023/06/05 11:30:44;;;;;;;0.47;0.40;;;;;;;;;;5053773;28;20710;-47
2023/06/05 11:33:17;;;;;;;0.60;0.40;;;;;;;;;;5036430;28;20231;-47
2023/06/05 11:35:48;;;;;;;0.77;0.50;;;;;;;;;;5053659;28;20646;-47
2023/06/05 11:38:17;;;;;;;0.88;0.60;;;;;;;;;;5053653;28;20653;-48
2023/06/05 11:40:48;;;;;;;0.50;0.50;;;;;;;;;;5053628;28;20295;-48
2023/06/05 11:43:16;;;;;;;1.13;0.75;;;;;;;;;;5053744;28;20612;-47
2023/06/05 11:45:51;;;;;;;1.80;0.73;;;;;;;;;;5053452;28;20249;-53
2023/06/05 11:48:19;;;;;;;0.85;0.63;;;;;;;;;;5044085;28;20707;-50
2023/06/05 11:50:58;;;;;;;1.98;0.68;;;;;;;;;;5047572;28;20647;-51
2023/06/05 11:53:30;;;;;;;0.85;0.60;;;;;;;;;;5042814;28;20195;-50
2023/06/05 11:56:08;;;;;;;1.60;0.77;;;;;;;;;;5043594;28;20194;-47
2023/06/05 11:58:37;;;;;;;1.77;0.70;;;;;;;;;;5043555;28;20203;-49
2023/06/05 12:01:14;;;;;;;1.35;0.80;;;;;;;;;;5045124;28;20200;-49
2023/06/05 12:03:42;;;;;;;1.05;0.50;;;;;;;;;;5041213;28;20243;-48
2023/06/05 12:06:12;;;;;;;2.08;0.47;;;;;;;;;;5043362;28;20200;-48
2023/06/05 12:08:41;;;;;;;0.80;0.60;;;;;;;;;;5018184;28;20200;-51
2023/06/05 12:11:25;;;;;;;1.10;0.45;;;;;;;;;;5042000;28;20224;-50
2023/06/05 12:13:56;;;;;;;1.15;0.65;;;;;;;;;;5033321;28;20589;-47
2023/06/05 12:16:35;;;;;;;0.45;0.38;;;;;;;;;;5044456;28;20275;-49
2023/06/05 12:19:11;;;;;;;1.15;0.50;;;;;;;;;;5036291;28;20192;-49
2023/06/05 12:21:43;;;;;;;0.65;0.60;;;;;;;;;;5046603;28;20219;-48
2023/06/05 12:24:11;;;;;;;1.85;0.68;;;;;;;;;;5051195;28;20691;-49
2023/06/05 12:26:53;;;;;;;1.52;0.70;;;;;;;;;;5042142;28;20196;-48
2023/06/05 12:29:22;;;;;;;1.65;0.77;;;;;;;;;;5043095;28;20196;-47
2023/06/05 12:31:52;;;;;;;1.05;0.50;;;;;;;;;;4998300;28;20690;-42
2023/06/05 12:34:46;;;;;;;0.52;0.40;;;;;;;;;;5023888;28;20203;-43
2023/06/05 12:37:37;;;;;;;0.80;0.50;;;;;;;;;;5040927;28;20291;-45
2023/06/05 12:40:10;;;;;;;0.60;0.55;;;;;;;;;;5038998;28;20216;-44
2023/06/05 12:42:40;;;;;;;0.77;0.47;;;;;;;;;;5046530;28;20631;-44
2023/06/05 12:45:08;;;;;;;0.57;0.40;;;;;;;;;;5045925;28;20228;-44
2023/06/05 12:47:37;;;;;;;0.98;0.43;;;;;;;;;;5051741;28;20223;-41
2023/06/05 12:50:11;;;;;;;1.33;0.50;;;;;;;;;;5055133;28;20226;-42
2023/06/05 12:52:40;;;;;;;0.88;0.70;;;;;;;;;;5039417;28;20345;-43
2023/06/05 12:55:08;;;;;;;0.65;0.50;;;;;;;;;;5042528;28;20216;-42
2023/06/05 12:57:36;;;;;;;1.02;0.70;;;;;;;;;;5042581;28;20229;-42
2023/06/05 13:00:11;;;;;;;6.18;0.60;;;;;;;;;;5044013;28;20304;-44
2023/06/05 13:02:45;;;;;;;3.88;0.50;;;;;;;;;;5041057;28;21876;-44
2023/06/05 13:05:14;;;;;;;2.83;0.65;;;;;;;;;;5055031;28;20234;-46
2023/06/05 13:07:42;;;;;;;0.88;0.60;;;;;;;;;;5045335;28;20217;-46
2023/06/05 13:10:11;;;;;;;0.95;0.73;;;;;;;;;;5043754;28;20220;-44
2023/06/05 13:12:38;;;;;;;1.38;0.60;;;;;;;;;;5022340;28;20216;-45
2023/06/05 13:15:06;;;;;;;1.70;0.77;;;;;;;;;;5035053;28;20248;-47
2023/06/05 13:17:35;;;;;;;0.93;0.50;;;;;;;;;;5033795;28;20274;-46
2023/06/05 13:20:10;;;;;;;0.40;0.40;;;;;;;;;;5033233;28;20225;-45
2023/06/05 13:22:42;;;;;;;4.07;0.60;;;;;;;;;;5033618;28;20311;-46
2023/06/05 13:25:09;;;;;;;0.60;0.47;;;;;;;;;;5040441;28;20314;-46
2023/06/05 13:27:36;;;;;;;0.80;0.50;;;;;;;;;;5043904;28;20216;-46
2023/06/05 13:30:04;;;;;;;0.73;0.50;;;;;;;;;;5046321;28;20235;-44
2023/06/05 13:32:35;;;;;;;1.58;0.55;;;;;;;;;;5048465;28;20235;-44
2023/06/05 13:35:03;;;;;;;1.20;0.52;;;;;;;;;;5045166;28;20224;-43
2023/06/05 13:37:31;;;;;;;1.48;0.70;;;;;;;;;;5043211;28;20216;-43
2023/06/05 13:39:58;;;;;;;0.80;0.50;;;;;;;;;;5045394;28;20251;-43
2023/06/05 13:42:26;;;;;;;0.60;0.47;;;;;;;;;;5043508;28;20721;-42
2023/06/05 13:44:53;;;;;;;6.55;0.80;;;;;;;;;;5048244;28;20285;-43
2023/06/05 13:47:20;;;;;;;0.70;0.50;;;;;;;;;;5055110;28;20223;-42
2023/06/05 13:49:47;;;;;;;1.08;0.60;;;;;;;;;;5054931;28;20266;-43
2023/06/05 13:52:15;;;;;;;1.15;0.55;;;;;;;;;;5054287;28;20240;-42
2023/06/05 13:54:43;;;;;;;0.65;0.50;;;;;;;;;;5049963;28;20315;-42
2023/06/05 13:57:12;;;;;;;1.10;0.65;;;;;;;;;;5047364;28;20310;-42
2023/06/05 13:59:39;;;;;;;2.25;0.40;;;;;;;;;;5046887;28;20227;-43
2023/06/05 14:02:06;;;;;;;2.03;0.80;;;;;;;;;;5046741;28;20227;-43
2023/06/05 14:04:33;;;;;;;0.57;0.45;;;;;;;;;;5045883;28;20239;-42
2023/06/05 14:07:01;;;;;;;1.35;0.80;;;;;;;;;;5042234;28;20224;-42
2023/06/05 14:09:28;;;;;;;0.50;0.50;;;;;;;;;;5041912;28;20224;-42
2023/06/05 14:11:56;;;;;;;1.27;0.60;;;;;;;;;;5043782;28;20273;-41
2023/06/05 14:14:24;;;;;;;1.08;0.60;;;;;;;;;;5047906;28;20217;-42
2023/06/05 14:16:51;;;;;;;1.15;0.73;;;;;;;;;;5048352;28;20223;-43
2023/06/05 14:19:18;;;;;;;0.73;0.50;;;;;;;;;;5042679;28;20224;-42
2023/06/05 14:21:46;;;;;;;1.63;0.60;;;;;;;;;;5050463;28;20224;-42
2023/06/05 14:24:14;;;;;;;1.17;0.40;;;;;;;;;;5054004;28;20220;-42
2023/06/05 14:26:41;;;;;;;4.35;0.70;;;;;;;;;;5053704;28;20231;-43
2023/06/05 14:29:08;;;;;;;1.02;0.47;;;;;;;;;;5039766;28;20225;-43
2023/06/05 14:31:37;;;;;;;1.95;0.60;;;;;;;;;;5041300;28;20235;-42
2023/06/05 14:34:04;;;;;;;3.05;0.57;;;;;;;;;;5045479;28;20255;-44
2023/06/05 14:36:32;;;;;;;0.73;0.65;;;;;;;;;;5034561;28;20233;-43
2023/06/05 14:38:59;;;;;;;0.85;0.55;;;;;;;;;;5043259;28;20312;-42
2023/06/05 14:41:28;;;;;;;2.17;0.82;;;;;;;;;;5045987;28;20229;-42
2023/06/05 14:43:56;;;;;;;0.98;0.63;;;;;;;;;;5041289;28;20244;-43
2023/06/05 14:46:36;;;;;;;0.68;0.55;;;;;;;;;;5049985;28;20227;-42
2023/06/05 14:49:03;;;;;;;0.98;0.63;;;;;;;;;;5053766;28;20238;-43
2023/06/05 14:51:31;;;;;;;1.48;0.80;;;;;;;;;;5036975;28;20223;-42
2023/06/05 14:53:57;;;;;;;1.63;0.60;;;;;;;;;;5053603;28;20203;-43
2023/06/05 14:56:26;;;;;;;1.08;0.52;;;;;;;;;;5054037;28;20212;-43
2023/06/05 14:58:53;;;;;;;1.77;0.65;;;;;;;;;;5054421;28;20566;-41